2CUTH EGBS-EGLD

Flight info

Callsign 2CUTH
Flight time 0h 38m
Altitude 3500
Route VFR
Aircraft DA62/L-SBDFGRY/S

Departure

Time 2026-04-26 12:50
Airport Shobdon Airfield (EGBS)

Arrival

Time 2026-04-26 13:29
Airport Denham Aerodrome (EGLD)
Time Latitude Longitude Altitude Speed Heading
2026-04-26 12:44 52.24279 -2.87904 319 ft 0 kts 122°
2026-04-26 12:47 52.24268 -2.87912 323 ft 7 kts 248°
2026-04-26 12:47 52.24257 -2.88003 320 ft 10 kts 263°
2026-04-26 12:47 52.24212 -2.88055 319 ft 9 kts 173°
2026-04-26 12:48 52.24165 -2.88140 319 ft 23 kts 259°
2026-04-26 12:48 52.24141 -2.88436 321 ft 24 kts 264°
2026-04-26 12:48 52.24123 -2.88676 322 ft 20 kts 263°
2026-04-26 12:48 52.24125 -2.88854 320 ft 7 kts 217°
2026-04-26 12:49 52.24110 -2.88836 321 ft 0 kts 83°
2026-04-26 12:49 52.24144 -2.88432 321 ft 67 kts 84°
2026-04-26 12:50 52.24194 -2.87828 371 ft 90 kts 89°
2026-04-26 12:50 52.24239 -2.86330 635 ft 108 kts 90°
2026-04-26 12:50 52.24255 -2.85512 868 ft 107 kts 91°
2026-04-26 12:50 52.24166 -2.84349 1270 ft 106 kts 117°
2026-04-26 12:51 52.23786 -2.83366 1658 ft 100 kts 149°
2026-04-26 12:51 52.23291 -2.82570 2021 ft 105 kts 115°
2026-04-26 12:51 52.23040 -2.81442 2428 ft 105 kts 116°
2026-04-26 12:51 52.22804 -2.80306 2887 ft 107 kts 114°
2026-04-26 12:52 52.22574 -2.79136 3269 ft 115 kts 112°
2026-04-26 12:52 52.22309 -2.77711 3297 ft 143 kts 110°
2026-04-26 12:52 52.22020 -2.76115 3289 ft 149 kts 110°
2026-04-26 12:52 52.21725 -2.74493 3299 ft 154 kts 110°
2026-04-26 12:53 52.21419 -2.72791 3299 ft 158 kts 109°
2026-04-26 12:53 52.21107 -2.71041 3301 ft 162 kts 110°
2026-04-26 12:53 52.20786 -2.69267 3299 ft 163 kts 109°
2026-04-26 12:53 52.20463 -2.67483 3301 ft 162 kts 109°
2026-04-26 12:54 52.20144 -2.65703 3281 ft 164 kts 109°
2026-04-26 12:54 52.19827 -2.63951 3298 ft 157 kts 109°
2026-04-26 12:54 52.19511 -2.62227 3285 ft 160 kts 110°
2026-04-26 12:54 52.19201 -2.60499 3295 ft 160 kts 109°
2026-04-26 12:55 52.18884 -2.58744 3287 ft 165 kts 110°
2026-04-26 12:55 52.18554 -2.56947 3291 ft 166 kts 110°
2026-04-26 12:55 52.18226 -2.55134 3299 ft 165 kts 109°
2026-04-26 12:55 52.17909 -2.53370 3286 ft 160 kts 109°
2026-04-26 12:56 52.17588 -2.51620 3297 ft 161 kts 108°
2026-04-26 12:56 52.17270 -2.49873 3294 ft 161 kts 109°
2026-04-26 12:56 52.16957 -2.48125 3277 ft 161 kts 109°
2026-04-26 12:56 52.16628 -2.46403 3268 ft 163 kts 109°
2026-04-26 12:57 52.16310 -2.44642 3305 ft 165 kts 109°
2026-04-26 12:57 52.15987 -2.42852 3283 ft 161 kts 109°
2026-04-26 12:57 52.15668 -2.41102 3295 ft 160 kts 110°
2026-04-26 12:58 52.15028 -2.37597 3285 ft 160 kts 109°
2026-04-26 12:58 52.14705 -2.35854 3290 ft 161 kts 109°
2026-04-26 12:58 52.14374 -2.34063 3288 ft 167 kts 109°
2026-04-26 12:58 52.14042 -2.32267 3288 ft 164 kts 109°
2026-04-26 12:59 52.13721 -2.30480 3281 ft 163 kts 110°
2026-04-26 12:59 52.13392 -2.28729 3288 ft 165 kts 109°
2026-04-26 12:59 52.13059 -2.26927 3296 ft 166 kts 109°
2026-04-26 12:59 52.12733 -2.25149 3289 ft 161 kts 110°
2026-04-26 13:00 52.12412 -2.23416 3311 ft 161 kts 110°
2026-04-26 13:00 52.12077 -2.21639 3285 ft 165 kts 109°
2026-04-26 13:00 52.11752 -2.19848 3295 ft 165 kts 109°
2026-04-26 13:00 52.11423 -2.18065 3297 ft 164 kts 109°
2026-04-26 13:01 52.11091 -2.16285 3296 ft 166 kts 109°
2026-04-26 13:01 52.10763 -2.14519 3303 ft 162 kts 110°
2026-04-26 13:01 52.10435 -2.12748 3283 ft 161 kts 109°
2026-04-26 13:01 52.10109 -2.11009 3283 ft 158 kts 109°
2026-04-26 13:02 52.09798 -2.09332 3281 ft 156 kts 109°
2026-04-26 13:02 52.09487 -2.07654 3307 ft 157 kts 110°
2026-04-26 13:02 52.09163 -2.05923 3291 ft 160 kts 110°
2026-04-26 13:02 52.08841 -2.04216 3289 ft 155 kts 110°
2026-04-26 13:03 52.08532 -2.02524 3282 ft 159 kts 110°
2026-04-26 13:03 52.08203 -2.00826 3303 ft 158 kts 109°
2026-04-26 13:03 52.07890 -1.99125 3302 ft 155 kts 109°
2026-04-26 13:03 52.07570 -1.97436 3287 ft 156 kts 110°
2026-04-26 13:04 52.07255 -1.95734 3304 ft 162 kts 108°
2026-04-26 13:04 52.06926 -1.93984 3279 ft 162 kts 110°
2026-04-26 13:04 52.06607 -1.92292 3286 ft 156 kts 110°
2026-04-26 13:04 52.06292 -1.90625 3285 ft 153 kts 110°
2026-04-26 13:05 52.05986 -1.88966 3289 ft 153 kts 109°
2026-04-26 13:05 52.05667 -1.87314 3289 ft 154 kts 110°
2026-04-26 13:05 52.05356 -1.85648 3278 ft 157 kts 110°
2026-04-26 13:05 52.05035 -1.83939 3298 ft 158 kts 109°
2026-04-26 13:06 52.04713 -1.82243 3298 ft 155 kts 110°
2026-04-26 13:06 52.04396 -1.80571 3310 ft 159 kts 110°
2026-04-26 13:06 52.04065 -1.78825 3301 ft 166 kts 111°
2026-04-26 13:06 52.03718 -1.77018 3289 ft 166 kts 109°
2026-04-26 13:07 52.03388 -1.75238 3298 ft 166 kts 111°
2026-04-26 13:07 52.03050 -1.73426 3306 ft 169 kts 110°
2026-04-26 13:07 52.02694 -1.71588 3312 ft 171 kts 109°
2026-04-26 13:07 52.02334 -1.69732 3311 ft 169 kts 111°
2026-04-26 13:08 52.01995 -1.67910 3298 ft 169 kts 109°
2026-04-26 13:08 52.01655 -1.66123 3328 ft 161 kts 110°
2026-04-26 13:08 52.01328 -1.64384 3308 ft 162 kts 111°
2026-04-26 13:08 52.00978 -1.62625 3289 ft 164 kts 110°
2026-04-26 13:09 52.00643 -1.60857 3308 ft 164 kts 109°
2026-04-26 13:09 52.00307 -1.59077 3280 ft 166 kts 109°
2026-04-26 13:09 51.99963 -1.57283 3292 ft 168 kts 110°
2026-04-26 13:09 51.99620 -1.55488 3301 ft 167 kts 111°
2026-04-26 13:10 51.99270 -1.53683 3286 ft 164 kts 110°
2026-04-26 13:10 51.98936 -1.51918 3285 ft 166 kts 110°
2026-04-26 13:10 51.98590 -1.50138 3295 ft 165 kts 110°
2026-04-26 13:10 51.98254 -1.48385 3295 ft 160 kts 111°
2026-04-26 13:11 51.97915 -1.46646 3266 ft 165 kts 110°
2026-04-26 13:11 51.97584 -1.44891 3301 ft 163 kts 109°
2026-04-26 13:11 51.97243 -1.43146 3292 ft 165 kts 110°
2026-04-26 13:11 51.96900 -1.41366 3274 ft 165 kts 110°
2026-04-26 13:12 51.96562 -1.39617 3293 ft 160 kts 110°
2026-04-26 13:12 51.96229 -1.37885 3301 ft 162 kts 111°
2026-04-26 13:12 51.95892 -1.36158 3279 ft 161 kts 110°
2026-04-26 13:12 51.95558 -1.34421 3283 ft 160 kts 110°
2026-04-26 13:13 51.95223 -1.32699 3286 ft 158 kts 110°
2026-04-26 13:13 51.94890 -1.30983 3295 ft 160 kts 110°
2026-04-26 13:13 51.94560 -1.29256 3269 ft 162 kts 109°
2026-04-26 13:13 51.94213 -1.27525 3306 ft 163 kts 109°
2026-04-26 13:14 51.93862 -1.25730 3276 ft 169 kts 109°
2026-04-26 13:14 51.93525 -1.23978 3283 ft 161 kts 110°
2026-04-26 13:14 51.93189 -1.22273 3268 ft 161 kts 111°
2026-04-26 13:14 51.92864 -1.20562 3252 ft 158 kts 109°
2026-04-26 13:15 51.92535 -1.18890 3173 ft 155 kts 110°
2026-04-26 13:15 51.92216 -1.17242 3101 ft 154 kts 109°
2026-04-26 13:15 51.91788 -1.15641 3033 ft 155 kts 126°
2026-04-26 13:15 51.91364 -1.14702 2954 ft 155 kts 127°
2026-04-26 13:16 51.90578 -1.12839 2853 ft 145 kts 127°
2026-04-26 13:16 51.90000 -1.11499 2767 ft 145 kts 127°
2026-04-26 13:16 51.89436 -1.10186 2681 ft 139 kts 127°
2026-04-26 13:16 51.88881 -1.08906 2618 ft 143 kts 127°
2026-04-26 13:17 51.87718 -1.06198 2494 ft 150 kts 126°
2026-04-26 13:17 51.87114 -1.04769 2398 ft 153 kts 127°
2026-04-26 13:18 51.85895 -1.01964 2301 ft 155 kts 127°
2026-04-26 13:18 51.85291 -1.00558 2295 ft 154 kts 125°
2026-04-26 13:18 51.84051 -0.97671 2271 ft 155 kts 127°
2026-04-26 13:19 51.83439 -0.96269 2295 ft 152 kts 126°
2026-04-26 13:19 51.82827 -0.94856 2278 ft 154 kts 127°
2026-04-26 13:19 51.82206 -0.93419 2263 ft 154 kts 126°
2026-04-26 13:19 51.81595 -0.92001 2248 ft 156 kts 126°
2026-04-26 13:20 51.80979 -0.90571 2316 ft 153 kts 125°
2026-04-26 13:20 51.80345 -0.89093 2249 ft 163 kts 126°
2026-04-26 13:20 51.79697 -0.87619 2254 ft 160 kts 127°
2026-04-26 13:20 51.79082 -0.86185 2259 ft 155 kts 126°
2026-04-26 13:21 51.78474 -0.84778 2310 ft 152 kts 126°
2026-04-26 13:21 51.78047 -0.83811 2250 ft 155 kts 127°
2026-04-26 13:21 51.77245 -0.81958 2272 ft 151 kts 126°
2026-04-26 13:21 51.76628 -0.80538 2267 ft 157 kts 126°
2026-04-26 13:22 51.76010 -0.79114 2275 ft 153 kts 126°
2026-04-26 13:22 51.75328 -0.77757 2268 ft 159 kts 129°
2026-04-26 13:22 51.74636 -0.76374 2269 ft 156 kts 129°
2026-04-26 13:22 51.73963 -0.75020 2268 ft 153 kts 129°
2026-04-26 13:23 51.73296 -0.73690 2264 ft 156 kts 129°
2026-04-26 13:23 51.72612 -0.72315 2258 ft 159 kts 129°
2026-04-26 13:23 51.71929 -0.70956 2272 ft 153 kts 128°
2026-04-26 13:23 51.71248 -0.69606 2281 ft 157 kts 129°
2026-04-26 13:24 51.70574 -0.68233 2272 ft 153 kts 130°
2026-04-26 13:24 51.69888 -0.66902 2277 ft 154 kts 129°
2026-04-26 13:24 51.69211 -0.65540 2269 ft 155 kts 129°
2026-04-26 13:24 51.68532 -0.64199 2277 ft 152 kts 129°
2026-04-26 13:25 51.67882 -0.62904 2159 ft 146 kts 129°
2026-04-26 13:25 51.67256 -0.61652 2042 ft 144 kts 129°
2026-04-26 13:25 51.66624 -0.60399 1895 ft 143 kts 129°
2026-04-26 13:25 51.66029 -0.59210 1746 ft 131 kts 129°
2026-04-26 13:26 51.65475 -0.58130 1585 ft 122 kts 129°
2026-04-26 13:26 51.64955 -0.57093 1454 ft 119 kts 129°
2026-04-26 13:26 51.64436 -0.56059 1328 ft 120 kts 128°
2026-04-26 13:26 51.63927 -0.55047 1279 ft 115 kts 129°
2026-04-26 13:27 51.63419 -0.54049 1296 ft 116 kts 127°
2026-04-26 13:27 51.62912 -0.53026 1284 ft 114 kts 137°
2026-04-26 13:27 51.62153 -0.52721 1155 ft 121 kts 185°
2026-04-26 13:27 51.61332 -0.52918 1063 ft 116 kts 188°
2026-04-26 13:28 51.60561 -0.53147 882 ft 113 kts 188°
2026-04-26 13:28 51.59791 -0.53360 726 ft 109 kts 187°
2026-04-26 13:28 51.59063 -0.53554 611 ft 103 kts 181°
2026-04-26 13:28 51.58591 -0.53001 485 ft 87 kts 111°
2026-04-26 13:29 51.58548 -0.52103 329 ft 83 kts 66°
2026-04-26 13:29 51.58737 -0.51590 251 ft 74 kts 64°
2026-04-26 13:29 51.58918 -0.51124 244 ft 14 kts 23°
2026-04-26 13:29 51.58973 -0.51202 244 ft 12 kts 289°
2026-04-26 13:30 51.59003 -0.51349 246 ft 14 kts 286°
2026-04-26 13:30 51.58997 -0.51424 247 ft 2 kts 205°
2026-04-26 13:30 51.58993 -0.51435 247 ft 0 kts 246°